createdAt,value
2017-12-26T00:02:18.470Z,99945.09
2017-12-26T00:04:44.263Z,99938.77
2017-12-26T00:07:10.039Z,99927.94
2017-12-26T00:09:35.822Z,99927.45
2017-12-26T00:12:01.611Z,99928.88
2017-12-26T00:14:27.731Z,99925.18
2017-12-26T00:16:53.539Z,99921.28
2017-12-26T00:19:19.339Z,99917.36
2017-12-26T00:21:45.390Z,99914.84
2017-12-26T00:24:11.191Z,99909.73
2017-12-26T00:26:36.974Z,99913.17
2017-12-26T00:29:02.779Z,99908.28
2017-12-26T00:31:28.583Z,99905.61
2017-12-26T00:33:54.363Z,99891.22
2017-12-26T00:36:20.166Z,99888.80
2017-12-26T00:38:45.953Z,99883.82
2017-12-26T00:41:11.780Z,99884.16
2017-12-26T00:43:37.568Z,99875.75
2017-12-26T00:46:03.362Z,99867.88
2017-12-26T00:48:29.199Z,99861.99
2017-12-26T00:50:54.975Z,99859.31
2017-12-26T00:53:20.772Z,99853.27
2017-12-26T00:55:46.576Z,99854.09
2017-12-26T00:58:12.364Z,99841.84
2017-12-26T01:00:38.164Z,99843.23
2017-12-26T01:03:04.002Z,99824.78
2017-12-26T01:05:29.797Z,99822.36
2017-12-26T01:07:55.602Z,99829.86
2017-12-26T01:10:21.407Z,99827.68
2017-12-26T01:12:47.204Z,99824.52
2017-12-26T01:17:45.710Z,99809.41
2017-12-26T01:20:11.502Z,99813.22
2017-12-26T01:22:37.504Z,99812.16
2017-12-26T01:25:03.315Z,99806.64
2017-12-26T01:27:29.099Z,99807.31
2017-12-26T01:29:54.923Z,99803.14
2017-12-26T01:32:20.711Z,99801.57
2017-12-26T01:34:46.509Z,99803.76
2017-12-26T01:37:12.319Z,99808.08
2017-12-26T01:39:38.114Z,99817.20
2017-12-26T01:42:03.943Z,99809.95
2017-12-26T01:44:29.954Z,99802.75
2017-12-26T01:46:55.799Z,99785.08
2017-12-26T01:49:21.616Z,99792.16
2017-12-26T01:51:47.398Z,99786.91
2017-12-26T01:54:13.205Z,99781.56
2017-12-26T01:56:39.009Z,99787.53
2017-12-26T01:59:04.782Z,99779.42
2017-12-26T02:01:31.414Z,99776.81
2017-12-26T02:03:57.220Z,99770.46
2017-12-26T02:06:23.023Z,99773.51
2017-12-26T02:08:48.827Z,99763.73
2017-12-26T02:11:14.644Z,99750.71
2017-12-26T02:13:40.423Z,99756.17
2017-12-26T02:16:06.231Z,99755.97
2017-12-26T02:18:32.031Z,99747.83
2017-12-26T02:20:57.818Z,99734.31
2017-12-26T02:23:23.598Z,99734.55
2017-12-26T02:25:49.380Z,99740.31
2017-12-26T02:28:15.166Z,99722.94
2017-12-26T02:30:40.939Z,99709.89
2017-12-26T02:33:06.706Z,99693.34
2017-12-26T02:35:32.523Z,99686.38
2017-12-26T02:37:58.313Z,99677.30
2017-12-26T02:40:24.086Z,99678.03
2017-12-26T02:42:49.891Z,99669.78
2017-12-26T02:45:15.695Z,99665.58
2017-12-26T02:47:41.475Z,99660.59
2017-12-26T02:50:07.304Z,99668.03
2017-12-26T02:52:33.106Z,99653.73
2017-12-26T02:54:58.888Z,99656.43
2017-12-26T02:57:24.702Z,99660.25
2017-12-26T02:59:50.487Z,99660.83
2017-12-26T03:02:16.268Z,99667.98
2017-12-26T03:04:42.074Z,99658.92
2017-12-26T03:07:07.887Z,99646.30
2017-12-26T03:09:33.712Z,99644.87
2017-12-26T03:11:59.486Z,99641.09
2017-12-26T03:14:25.255Z,99635.83
2017-12-26T03:16:51.046Z,99638.75
2017-12-26T03:19:16.826Z,99621.78
2017-12-26T03:21:42.625Z,99621.31
2017-12-26T03:24:08.443Z,99619.72
2017-12-26T03:26:34.227Z,99622.91
2017-12-26T03:29:00.015Z,99608.08
2017-12-26T03:31:25.811Z,99596.55
2017-12-26T03:33:51.595Z,99598.81
2017-12-26T03:36:17.382Z,99608.66
2017-12-26T03:38:43.165Z,99602.55
2017-12-26T03:41:08.959Z,99605.04
2017-12-26T03:43:34.742Z,99595.97
2017-12-26T03:46:00.520Z,99599.71
2017-12-26T03:48:26.362Z,99591.22
2017-12-26T03:50:52.110Z,99589.90
2017-12-26T03:53:17.890Z,99582.30
2017-12-26T03:55:43.686Z,99577.09
2017-12-26T03:58:09.469Z,99567.28
2017-12-26T04:00:35.252Z,99581.41
2017-12-26T04:03:01.051Z,99570.28
2017-12-26T04:05:26.831Z,99574.02
2017-12-26T04:07:52.618Z,99564.05
2017-12-26T04:10:18.420Z,99556.20
2017-12-26T04:12:44.207Z,99541.25
2017-12-26T04:15:09.990Z,99546.63
2017-12-26T04:17:36.127Z,99551.34
2017-12-26T04:20:01.929Z,99542.34
2017-12-26T04:22:27.711Z,99537.80
2017-12-26T04:24:53.494Z,99518.73
2017-12-26T04:27:19.275Z,99513.17
2017-12-26T04:29:45.104Z,99499.81
2017-12-26T04:32:10.897Z,99508.19
2017-12-26T04:34:36.675Z,99494.80
2017-12-26T04:37:02.750Z,99488.25
2017-12-26T04:39:28.563Z,99490.23
2017-12-26T04:41:54.339Z,99477.52
2017-12-26T04:44:20.156Z,99485.69
2017-12-26T04:46:45.950Z,99464.56
2017-12-26T04:49:11.735Z,99454.61
2017-12-26T04:51:37.522Z,99463.83
2017-12-26T04:54:03.297Z,99473.12
2017-12-26T04:56:29.088Z,99472.97
2017-12-26T04:58:54.906Z,99458.80
2017-12-26T05:01:21.559Z,99444.63
2017-12-26T05:03:47.384Z,99428.98
2017-12-26T05:06:13.385Z,99424.72
2017-12-26T05:08:39.174Z,99412.82
2017-12-26T05:11:04.989Z,99401.47
2017-12-26T05:13:30.766Z,99399.17
2017-12-26T05:15:56.554Z,99388.41
2017-12-26T05:18:22.355Z,99385.06
2017-12-26T05:20:48.161Z,99373.13
2017-12-26T05:23:13.963Z,99371.27
2017-12-26T05:25:39.751Z,99375.70
2017-12-26T05:28:05.970Z,99365.55
2017-12-26T05:30:31.766Z,99341.77
2017-12-26T05:32:57.539Z,99353.36
2017-12-26T05:35:23.371Z,99369.87
2017-12-26T05:37:49.188Z,99371.53
2017-12-26T05:40:14.968Z,99360.84
2017-12-26T05:42:40.791Z,99354.90
2017-12-26T05:45:06.578Z,99344.13
2017-12-26T05:47:32.371Z,99348.10
2017-12-26T05:49:58.972Z,99322.57
2017-12-26T05:52:24.750Z,99322.57
2017-12-26T05:54:50.539Z,99292.72
2017-12-26T05:57:16.324Z,99293.63
2017-12-26T05:59:42.098Z,99289.75
2017-12-26T06:02:07.890Z,99292.93
2017-12-26T06:04:33.665Z,99293.13
2017-12-26T06:06:59.486Z,99284.33
2017-12-26T06:09:25.450Z,99283.57
2017-12-26T06:11:51.233Z,99277.23
2017-12-26T06:14:17.014Z,99265.90
2017-12-26T06:16:43.043Z,99255.84
2017-12-26T06:19:08.826Z,99244.42
2017-12-26T06:21:34.609Z,99243.64
2017-12-26T06:24:00.411Z,99249.60
2017-12-26T06:26:26.178Z,99231.92
2017-12-26T06:28:51.950Z,99220.70
2017-12-26T06:31:17.774Z,99226.80
2017-12-26T06:33:43.554Z,99215.11
2017-12-26T06:36:09.326Z,99195.85
2017-12-26T06:38:35.135Z,99204.16
2017-12-26T06:41:00.916Z,99185.51
2017-12-26T06:43:26.706Z,99179.64
2017-12-26T06:45:52.758Z,99191.48
2017-12-26T06:48:18.551Z,99184.97
2017-12-26T06:50:44.341Z,99177.20
2017-12-26T06:53:10.158Z,99187.31
2017-12-26T06:55:35.946Z,99179.05
2017-12-26T06:58:01.726Z,99168.82
2017-12-26T07:00:27.522Z,99160.34
2017-12-26T07:02:53.301Z,99150.24
2017-12-26T07:05:19.125Z,99142.34
2017-12-26T07:07:44.907Z,99153.09
2017-12-26T07:10:10.693Z,99145.98
2017-12-26T07:12:36.515Z,99129.84
2017-12-26T07:15:02.332Z,99140.02
2017-12-26T07:17:28.106Z,99127.94
2017-12-26T07:19:54.132Z,99122.36
2017-12-26T07:22:21.938Z,99109.70
2017-12-26T07:24:47.723Z,99133.16
2017-12-26T07:27:13.835Z,99112.61
2017-12-26T07:29:39.647Z,99102.23
2017-12-26T07:32:05.423Z,99118.76
2017-12-26T07:34:31.206Z,99115.45
2017-12-26T07:36:56.987Z,99093.95
2017-12-26T07:39:23.633Z,99074.26
2017-12-26T07:41:49.428Z,99082.56
2017-12-26T07:44:15.212Z,99082.78
2017-12-26T07:46:41.004Z,99068.55
2017-12-26T07:49:06.780Z,99080.97
2017-12-26T07:51:32.822Z,99077.61
2017-12-26T07:53:58.618Z,99073.61
2017-12-26T07:56:24.426Z,99079.29
2017-12-26T07:58:50.219Z,99072.27
2017-12-26T08:01:16.019Z,99089.66
2017-12-26T08:03:41.789Z,99090.56
2017-12-26T08:06:07.595Z,99095.48
2017-12-26T08:08:33.406Z,99078.56
2017-12-26T08:10:59.211Z,99085.34
2017-12-26T08:13:24.997Z,99093.80
2017-12-26T08:15:50.779Z,99087.22
2017-12-26T08:18:16.612Z,99060.36
2017-12-26T08:20:42.406Z,99079.91
2017-12-26T08:23:08.174Z,99082.92
2017-12-26T08:25:33.987Z,99077.68
2017-12-26T08:27:59.754Z,99066.78
2017-12-26T08:30:25.530Z,99067.25
2017-12-26T08:32:51.538Z,99079.84
2017-12-26T08:35:17.320Z,99077.41
2017-12-26T08:37:43.096Z,99075.92
2017-12-26T08:40:08.915Z,99075.00
2017-12-26T08:42:34.707Z,99064.14
2017-12-26T08:45:00.494Z,99054.23
2017-12-26T08:47:26.311Z,99057.23
2017-12-26T08:49:52.104Z,99058.55
2017-12-26T08:52:17.906Z,99046.56
2017-12-26T08:54:43.724Z,99049.15
2017-12-26T08:57:09.509Z,99047.80
2017-12-26T08:59:35.450Z,99054.25
2017-12-26T09:02:01.263Z,99047.44
2017-12-26T09:04:27.278Z,99056.63
2017-12-26T09:06:53.084Z,99060.06
2017-12-26T09:09:18.872Z,99056.81
2017-12-26T09:11:44.676Z,99066.40
2017-12-26T09:14:10.468Z,99069.72
2017-12-26T09:16:36.250Z,99069.17
2017-12-26T09:19:02.040Z,99071.12
2017-12-26T09:21:27.822Z,99062.87
2017-12-26T09:23:53.623Z,99063.72
2017-12-26T09:26:19.415Z,99062.72
2017-12-26T09:28:45.374Z,99064.97
2017-12-26T09:31:11.153Z,99065.48
2017-12-26T09:33:36.951Z,99068.98
2017-12-26T09:36:02.782Z,99055.16
2017-12-26T09:38:28.566Z,99087.43
2017-12-26T09:40:54.360Z,99069.90
2017-12-26T09:43:20.162Z,99066.33
2017-12-26T09:45:48.036Z,99069.25
2017-12-26T09:48:13.834Z,99079.95
2017-12-26T09:50:39.642Z,99083.32
2017-12-26T09:53:05.425Z,99086.61
2017-12-26T09:55:31.194Z,99081.28
2017-12-26T09:57:57.215Z,99082.55
2017-12-26T10:00:23.338Z,99071.66
2017-12-26T10:02:49.157Z,99083.38
2017-12-26T10:05:15.182Z,99097.17
2017-12-26T10:07:40.969Z,99108.41
2017-12-26T10:10:06.755Z,99074.14
2017-12-26T10:12:32.574Z,99085.77
2017-12-26T10:14:58.379Z,99083.98
2017-12-26T10:17:25.207Z,99095.00
2017-12-26T10:19:51.088Z,99078.86
2017-12-26T10:22:17.101Z,99085.58
2017-12-26T10:24:49.751Z,99084.30
2017-12-26T10:27:15.956Z,99084.16
2017-12-26T10:29:41.738Z,99075.14
2017-12-26T10:32:07.531Z,99086.50
2017-12-26T10:34:33.528Z,99091.28
2017-12-26T10:36:59.330Z,99111.80
2017-12-26T10:39:25.130Z,99087.47
2017-12-26T10:41:50.933Z,99072.20
2017-12-26T10:44:16.785Z,99080.53
2017-12-26T10:46:42.567Z,99073.44
2017-12-26T10:49:08.690Z,99071.06
2017-12-26T10:51:34.735Z,99074.50
2017-12-26T10:54:01.009Z,99079.45
2017-12-26T10:56:27.115Z,99078.71
2017-12-26T10:58:53.340Z,99072.75
2017-12-26T11:01:19.562Z,99063.86
2017-12-26T11:03:45.411Z,99073.09
2017-12-26T11:06:12.944Z,99073.13
2017-12-26T11:08:38.737Z,99066.68
2017-12-26T11:11:04.806Z,99066.55
2017-12-26T11:13:30.616Z,99072.43
2017-12-26T11:15:56.459Z,99069.38
2017-12-26T11:18:22.748Z,99072.50
2017-12-26T11:20:48.708Z,99067.91
2017-12-26T11:23:14.964Z,99079.18
2017-12-26T11:25:41.129Z,99072.01
2017-12-26T11:28:06.956Z,99081.02
2017-12-26T11:30:32.808Z,99083.19
2017-12-26T11:32:58.663Z,99072.77
2017-12-26T11:35:26.056Z,99069.03
2017-12-26T11:37:51.927Z,99073.42
2017-12-26T11:40:17.814Z,99064.30
2017-12-26T11:42:43.612Z,99065.55
2017-12-26T11:45:09.784Z,99075.09
2017-12-26T11:47:35.586Z,99071.32
2017-12-26T11:50:01.389Z,99065.32
2017-12-26T11:52:28.097Z,99068.05
2017-12-26T11:54:53.915Z,99072.99
2017-12-26T11:57:20.786Z,99063.38
2017-12-26T11:59:48.019Z,99070.20
2017-12-26T12:02:13.857Z,99059.88
2017-12-26T12:04:39.666Z,99061.12
2017-12-26T12:07:06.180Z,99073.08
2017-12-26T12:09:32.316Z,99065.70
2017-12-26T12:11:58.117Z,99067.02
2017-12-26T12:14:23.911Z,99073.80
2017-12-26T12:16:49.848Z,99072.75
2017-12-26T12:19:15.648Z,99061.44
2017-12-26T12:21:41.445Z,99083.22
2017-12-26T12:24:07.248Z,99081.05
2017-12-26T12:26:33.071Z,99080.89
2017-12-26T12:28:58.850Z,99084.70
2017-12-26T12:31:24.644Z,99088.53
2017-12-26T12:33:50.429Z,99105.11
2017-12-26T12:36:16.257Z,99120.73
2017-12-26T12:38:42.084Z,99121.78
2017-12-26T12:41:07.886Z,99114.71
2017-12-26T12:43:33.684Z,99114.11
2017-12-26T12:45:59.478Z,99105.68
2017-12-26T12:48:25.436Z,99105.29
2017-12-26T12:50:51.242Z,99108.48
2017-12-26T12:53:17.041Z,99115.20
2017-12-26T12:55:42.851Z,99117.91
2017-12-26T12:58:08.635Z,99108.41
2017-12-26T13:00:34.772Z,99108.72
2017-12-26T13:03:00.579Z,99118.78
2017-12-26T13:05:26.395Z,99125.11
2017-12-26T13:07:52.179Z,99134.81
2017-12-26T13:10:18.004Z,99133.68
2017-12-26T13:12:43.793Z,99122.40
2017-12-26T13:15:09.589Z,99122.05
2017-12-26T13:17:35.759Z,99122.28
2017-12-26T13:20:01.555Z,99112.70
2017-12-26T13:22:27.594Z,99114.45
2017-12-26T13:24:53.580Z,99124.13
2017-12-26T13:27:19.375Z,99118.38
2017-12-26T13:29:45.243Z,99117.23
2017-12-26T13:32:11.047Z,99124.39
2017-12-26T13:34:36.836Z,99116.18
2017-12-26T13:37:02.824Z,99121.91
2017-12-26T13:39:28.631Z,99121.80
2017-12-26T13:41:54.571Z,99114.06
2017-12-26T13:44:20.388Z,99125.59
2017-12-26T13:46:46.175Z,99123.53
2017-12-26T13:49:11.950Z,99120.95
2017-12-26T13:51:37.747Z,99130.16
2017-12-26T13:54:03.548Z,99133.75
2017-12-26T13:56:29.358Z,99130.86
2017-12-26T13:58:55.162Z,99123.39
2017-12-26T14:01:20.959Z,99126.17
2017-12-26T14:03:46.750Z,99125.39
2017-12-26T14:06:12.535Z,99135.17
2017-12-26T14:08:38.326Z,99144.88
2017-12-26T14:11:04.119Z,99145.54
2017-12-26T14:13:29.906Z,99150.33
2017-12-26T14:15:55.697Z,99143.69
2017-12-26T14:18:21.687Z,99146.47
2017-12-26T14:20:47.475Z,99157.20
2017-12-26T14:23:13.282Z,99162.35
2017-12-26T14:25:39.300Z,99167.45
2017-12-26T14:28:05.103Z,99169.47
2017-12-26T14:30:30.899Z,99169.83
2017-12-26T14:32:56.738Z,99170.11
2017-12-26T14:35:22.534Z,99171.95
2017-12-26T14:37:48.315Z,99164.15
2017-12-26T14:40:14.111Z,99170.05
2017-12-26T14:42:39.942Z,99159.05
2017-12-26T14:45:05.754Z,99165.84
2017-12-26T14:47:31.555Z,99164.14
2017-12-26T14:49:57.359Z,99161.87
2017-12-26T14:52:30.235Z,99186.38
2017-12-26T14:54:56.042Z,99169.78
2017-12-26T14:57:21.843Z,99170.47
2017-12-26T14:59:47.622Z,99177.87
2017-12-26T15:02:13.414Z,99168.93
2017-12-26T15:04:39.210Z,99181.35
2017-12-26T15:07:05.006Z,99171.03
2017-12-26T15:09:30.818Z,99174.55
2017-12-26T15:11:56.594Z,99170.30
2017-12-26T15:14:22.379Z,99171.44
2017-12-26T15:16:48.179Z,99173.51
2017-12-26T15:19:14.269Z,99179.23
2017-12-26T15:21:40.107Z,99168.80
2017-12-26T15:24:05.898Z,99181.47
2017-12-26T15:26:31.687Z,99178.06
2017-12-26T15:28:57.492Z,99175.04
2017-12-26T15:31:23.294Z,99172.59
2017-12-26T15:33:49.086Z,99182.66
2017-12-26T15:36:14.902Z,99179.86
2017-12-26T15:38:40.683Z,99179.58
2017-12-26T15:41:06.470Z,99188.16
2017-12-26T15:43:32.258Z,99181.53
2017-12-26T15:45:58.053Z,99192.56
2017-12-26T15:48:23.826Z,99186.91
2017-12-26T15:50:49.615Z,99177.87
2017-12-26T15:53:15.402Z,99186.56
2017-12-26T15:55:41.387Z,99182.58
2017-12-26T15:58:07.175Z,99188.70
2017-12-26T16:00:32.963Z,99196.30
2017-12-26T16:02:58.755Z,99190.23
2017-12-26T16:05:24.527Z,99200.19
2017-12-26T16:07:50.346Z,99205.23
2017-12-26T16:10:16.131Z,99209.18
2017-12-26T16:12:41.914Z,99208.50
2017-12-26T16:15:07.733Z,99208.54
2017-12-26T16:17:33.510Z,99206.69
2017-12-26T16:19:59.306Z,99212.45
2017-12-26T16:22:25.110Z,99209.78
2017-12-26T16:24:50.886Z,99216.24
2017-12-26T16:27:16.662Z,99217.63
2017-12-26T16:29:42.475Z,99220.36
2017-12-26T16:32:08.264Z,99220.36
2017-12-26T16:34:34.036Z,99228.33
2017-12-26T16:36:59.840Z,99227.73
2017-12-26T16:39:25.713Z,99235.88
2017-12-26T16:41:51.502Z,99236.80
2017-12-26T16:44:17.310Z,99241.61
2017-12-26T16:46:43.091Z,99244.10
2017-12-26T16:49:08.872Z,99251.67
2017-12-26T16:51:34.687Z,99244.45
2017-12-26T16:54:00.478Z,99243.56
2017-12-26T16:56:26.259Z,99248.23
2017-12-26T16:58:52.455Z,99252.56
2017-12-26T17:01:18.242Z,99250.04
2017-12-26T17:03:44.026Z,99255.02
2017-12-26T17:06:09.811Z,99250.30
2017-12-26T17:08:35.590Z,99256.02
2017-12-26T17:11:01.768Z,99249.94
2017-12-26T17:13:27.568Z,99254.09
2017-12-26T17:15:53.356Z,99257.52
2017-12-26T17:18:19.271Z,99254.59
2017-12-26T17:20:45.067Z,99248.59
2017-12-26T17:23:10.840Z,99257.52
2017-12-26T17:25:36.868Z,99245.17
2017-12-26T17:28:02.666Z,99240.63
2017-12-26T17:30:28.443Z,99239.02
2017-12-26T17:32:54.422Z,99247.91
2017-12-26T17:35:20.206Z,99251.54
2017-12-26T17:37:45.979Z,99248.95
2017-12-26T17:40:11.775Z,99248.34
2017-12-26T17:42:37.559Z,99245.74
2017-12-26T17:45:03.364Z,99244.68
2017-12-26T17:47:36.163Z,99252.68
2017-12-26T17:50:01.991Z,99259.37
2017-12-26T17:52:27.785Z,99260.05
2017-12-26T17:54:53.558Z,99260.36
2017-12-26T17:57:19.335Z,99254.09
2017-12-26T17:59:45.446Z,99259.29
2017-12-26T18:02:11.228Z,99265.87
2017-12-26T18:04:37.015Z,99257.30
2017-12-26T18:07:02.806Z,99263.84
2017-12-26T18:09:28.590Z,99262.84
2017-12-26T18:12:01.457Z,99258.47
2017-12-26T18:14:27.269Z,99254.87
2017-12-26T18:16:53.046Z,99261.53
2017-12-26T18:19:18.826Z,99259.33
2017-12-26T18:21:44.951Z,99256.30
2017-12-26T18:24:10.755Z,99259.74
2017-12-26T18:26:36.554Z,99249.87
2017-12-26T18:29:02.383Z,99250.89
2017-12-26T18:31:28.186Z,99248.16
2017-12-26T18:33:53.958Z,99250.00
2017-12-26T18:36:19.739Z,99248.75
2017-12-26T18:38:45.522Z,99252.74
2017-12-26T18:41:11.320Z,99250.72
2017-12-26T18:43:37.094Z,99250.67
2017-12-26T18:46:02.889Z,99253.73
2017-12-26T18:48:28.706Z,99258.11
2017-12-26T18:50:54.478Z,99255.81
2017-12-26T18:53:20.259Z,99259.80
2017-12-26T18:55:46.383Z,99255.38
2017-12-26T18:58:12.167Z,99249.62
2017-12-26T19:00:37.950Z,99251.44
2017-12-26T19:03:03.750Z,99258.02
2017-12-26T19:05:29.532Z,99258.33
2017-12-26T19:07:55.333Z,99257.97
2017-12-26T19:10:21.113Z,99259.39
2017-12-26T19:12:46.895Z,99251.39
2017-12-26T19:15:12.681Z,99251.42
2017-12-26T19:17:38.465Z,99253.69
2017-12-26T19:20:04.250Z,99256.68
2017-12-26T19:22:30.038Z,99253.13
2017-12-26T19:24:55.816Z,99258.56
2017-12-26T19:27:21.637Z,99255.92
2017-12-26T19:29:47.410Z,99257.67
2017-12-26T19:32:13.182Z,99244.33
2017-12-26T19:34:38.969Z,99257.31
2017-12-26T19:37:04.751Z,99261.00
2017-12-26T19:39:30.542Z,99249.05
2017-12-26T19:41:56.353Z,99244.92
2017-12-26T19:44:22.130Z,99245.09
2017-12-26T19:46:47.919Z,99241.34
2017-12-26T19:49:13.730Z,99240.60
2017-12-26T19:51:39.521Z,99241.48
2017-12-26T19:54:05.306Z,99229.07
2017-12-26T19:56:31.107Z,99242.55
2017-12-26T19:58:56.894Z,99238.87
2017-12-26T20:01:22.691Z,99234.30
2017-12-26T20:03:48.501Z,99242.25
2017-12-26T20:06:14.283Z,99241.61
2017-12-26T20:08:40.071Z,99239.43
2017-12-26T20:11:05.866Z,99236.59
2017-12-26T20:13:31.644Z,99236.20
2017-12-26T20:15:57.427Z,99232.39
2017-12-26T20:18:23.206Z,99234.34
2017-12-26T20:20:49.010Z,99235.31
2017-12-26T20:23:15.113Z,99232.14
2017-12-26T20:25:40.907Z,99231.77
2017-12-26T20:28:13.727Z,99225.34
2017-12-26T20:30:39.502Z,99230.45
2017-12-26T20:33:05.297Z,99226.48
2017-12-26T20:35:31.102Z,99227.84
2017-12-26T20:37:56.897Z,99223.61
2017-12-26T20:40:22.698Z,99224.67
2017-12-26T20:42:48.514Z,99228.67
2017-12-26T20:45:14.290Z,99222.34
2017-12-26T20:47:40.091Z,99230.55
2017-12-26T20:50:05.891Z,99229.08
2017-12-26T20:52:31.678Z,99233.45
2017-12-26T20:54:57.450Z,99235.33
2017-12-26T20:57:23.439Z,99231.99
2017-12-26T20:59:49.221Z,99220.98
2017-12-26T21:02:15.012Z,99217.92
2017-12-26T21:04:40.804Z,99209.80
2017-12-26T21:07:06.574Z,99216.09
2017-12-26T21:09:32.366Z,99218.94
2017-12-26T21:11:58.442Z,99214.86
2017-12-26T21:14:24.234Z,99216.89
2017-12-26T21:16:50.014Z,99209.85
2017-12-26T21:19:15.809Z,99203.83
2017-12-26T21:21:41.593Z,99197.46
2017-12-26T21:24:07.407Z,99201.35
2017-12-26T21:26:33.197Z,99207.20
2017-12-26T21:28:58.994Z,99198.66
2017-12-26T21:31:24.781Z,99201.05
2017-12-26T21:33:50.582Z,99203.11
2017-12-26T21:36:16.394Z,99200.39
2017-12-26T21:38:42.164Z,99196.25
2017-12-26T21:41:07.962Z,99197.61
2017-12-26T21:43:33.742Z,99196.60
2017-12-26T21:45:59.525Z,99189.81
2017-12-26T21:48:25.325Z,99191.09
2017-12-26T21:50:51.106Z,99187.95
2017-12-26T21:53:16.884Z,99194.95
2017-12-26T21:55:42.766Z,99188.34
2017-12-26T21:58:08.551Z,99197.28
2017-12-26T22:00:34.362Z,99202.17
2017-12-26T22:03:00.170Z,99199.22
2017-12-26T22:05:25.954Z,99194.95
2017-12-26T22:07:51.731Z,99189.91
2017-12-26T22:10:17.551Z,99190.22
2017-12-26T22:12:43.339Z,99183.73
2017-12-26T22:15:09.130Z,99183.11
2017-12-26T22:17:34.934Z,99181.95
2017-12-26T22:20:00.742Z,99173.64
2017-12-26T22:22:26.506Z,99180.16
2017-12-26T22:24:52.299Z,99176.71
2017-12-26T22:27:18.206Z,99172.91
2017-12-26T22:29:44.015Z,99173.06
2017-12-26T22:32:09.802Z,99171.66
2017-12-26T22:34:35.634Z,99167.66
2017-12-26T22:37:02.611Z,99168.59
2017-12-26T22:39:28.446Z,99164.05
2017-12-26T22:41:54.254Z,99167.63
2017-12-26T22:44:20.098Z,99161.03
2017-12-26T22:46:45.873Z,99162.70
2017-12-26T22:49:11.857Z,99160.33
2017-12-26T22:51:37.668Z,99160.22
2017-12-26T22:54:03.582Z,99156.13
2017-12-26T22:56:29.438Z,99145.42
2017-12-26T22:58:55.285Z,99143.79
2017-12-26T23:01:21.110Z,99142.63
2017-12-26T23:03:46.884Z,99141.42
2017-12-26T23:06:12.682Z,99136.34
2017-12-26T23:08:38.610Z,99133.23
2017-12-26T23:11:04.574Z,99142.08
2017-12-26T23:13:30.356Z,99145.18
2017-12-26T23:16:02.290Z,99137.39
2017-12-26T23:18:28.418Z,99132.33
2017-12-26T23:21:01.034Z,99138.17
2017-12-26T23:23:33.301Z,99132.45
2017-12-26T23:26:05.282Z,99136.50
2017-12-26T23:28:37.035Z,99129.69
2017-12-26T23:31:09.045Z,99119.38
2017-12-26T23:33:40.873Z,99117.09
2017-12-26T23:39:09.573Z,99105.92
2017-12-26T23:41:41.382Z,99106.34
2017-12-26T23:44:13.238Z,99100.69
2017-12-26T23:52:32.268Z,99098.04
2017-12-26T23:55:04.385Z,99094.37
2017-12-26T23:57:36.350Z,99094.86
